sensor_id;sensor_type;location;lat;lon;timestamp;pressure;altitude;pressure_sealevel;temperature;humidity
7668;BME280;3876;42.204;24.686;2023-05-03T00:01:29;99997.13;;;13.72;62.62
7668;BME280;3876;42.204;24.686;2023-05-03T00:03:55;100005.47;;;13.53;63.46
7668;BME280;3876;42.204;24.686;2023-05-03T00:06:23;100003.94;;;13.20;65.07
7668;BME280;3876;42.204;24.686;2023-05-03T00:08:51;100005.38;;;13.01;65.68
7668;BME280;3876;42.204;24.686;2023-05-03T00:11:17;99994.44;;;12.93;65.89
7668;BME280;3876;42.204;24.686;2023-05-03T00:13:45;99997.00;;;12.94;66.14
7668;BME280;3876;42.204;24.686;2023-05-03T00:16:12;99992.97;;;12.86;66.25
7668;BME280;3876;42.204;24.686;2023-05-03T00:18:38;99997.22;;;12.87;66.86
7668;BME280;3876;42.204;24.686;2023-05-03T00:21:05;99993.88;;;12.83;67.16
7668;BME280;3876;42.204;24.686;2023-05-03T00:23:33;99987.28;;;12.76;67.27
7668;BME280;3876;42.204;24.686;2023-05-03T00:26:00;99990.06;;;12.69;67.83
7668;BME280;3876;42.204;24.686;2023-05-03T00:28:27;100004.63;;;12.70;67.71
7668;BME280;3876;42.204;24.686;2023-05-03T00:30:53;100001.00;;;12.75;68.44
7668;BME280;3876;42.204;24.686;2023-05-03T00:33:20;99990.75;;;12.74;68.34
7668;BME280;3876;42.204;24.686;2023-05-03T00:35:47;99993.50;;;12.68;68.66
7668;BME280;3876;42.204;24.686;2023-05-03T00:38:13;99986.50;;;12.73;68.84
7668;BME280;3876;42.204;24.686;2023-05-03T00:40:41;99979.69;;;12.72;68.65
7668;BME280;3876;42.204;24.686;2023-05-03T00:43:10;99981.19;;;12.79;68.44
7668;BME280;3876;42.204;24.686;2023-05-03T00:45:37;99982.69;;;12.86;68.27
7668;BME280;3876;42.204;24.686;2023-05-03T00:48:04;99964.25;;;12.72;68.19
7668;BME280;3876;42.204;24.686;2023-05-03T00:50:31;99989.19;;;12.70;69.41
7668;BME280;3876;42.204;24.686;2023-05-03T00:52:58;99979.47;;;12.78;70.49
7668;BME280;3876;42.204;24.686;2023-05-03T00:55:28;99981.31;;;12.74;70.05
7668;BME280;3876;42.204;24.686;2023-05-03T00:57:57;99990.47;;;12.83;70.88
7668;BME280;3876;42.204;24.686;2023-05-03T01:00:23;99977.78;;;12.77;71.77
7668;BME280;3876;42.204;24.686;2023-05-03T01:02:50;99966.25;;;12.62;71.66
7668;BME280;3876;42.204;24.686;2023-05-03T01:05:18;99979.47;;;12.78;71.87
7668;BME280;3876;42.204;24.686;2023-05-03T01:07:53;99975.94;;;12.82;71.61
7668;BME280;3876;42.204;24.686;2023-05-03T01:10:25;99980.03;;;12.89;71.31
7668;BME280;3876;42.204;24.686;2023-05-03T01:13:03;99974.63;;;12.96;71.79
7668;BME280;3876;42.204;24.686;2023-05-03T01:15:42;99985.22;;;13.15;71.27
7668;BME280;3876;42.204;24.686;2023-05-03T01:18:11;99982.50;;;13.20;70.42
7668;BME280;3876;42.204;24.686;2023-05-03T01:20:43;99974.00;;;13.18;70.42
7668;BME280;3876;42.204;24.686;2023-05-03T01:23:17;99990.28;;;13.18;70.16
7668;BME280;3876;42.204;24.686;2023-05-03T01:25:50;99984.22;;;13.19;70.26
7668;BME280;3876;42.204;24.686;2023-05-03T01:28:17;99977.59;;;13.12;69.01
7668;BME280;3876;42.204;24.686;2023-05-03T01:30:45;99972.13;;;12.95;69.37
7668;BME280;3876;42.204;24.686;2023-05-03T01:33:16;99962.13;;;12.84;70.33
7668;BME280;3876;42.204;24.686;2023-05-03T01:35:51;99961.03;;;12.63;70.59
7668;BME280;3876;42.204;24.686;2023-05-03T01:38:21;99956.06;;;12.57;70.77
7668;BME280;3876;42.204;24.686;2023-05-03T01:40:52;99961.13;;;12.60;72.09
7668;BME280;3876;42.204;24.686;2023-05-03T01:43:20;99964.69;;;12.56;73.11
7668;BME280;3876;42.204;24.686;2023-05-03T01:45:47;99968.16;;;12.55;73.77
7668;BME280;3876;42.204;24.686;2023-05-03T01:48:17;99958.22;;;12.43;74.63
7668;BME280;3876;42.204;24.686;2023-05-03T01:50:43;99955.69;;;12.42;76.38
7668;BME280;3876;42.204;24.686;2023-05-03T01:53:11;99955.38;;;12.23;77.31
7668;BME280;3876;42.204;24.686;2023-05-03T01:55:38;99947.00;;;12.15;77.36
7668;BME280;3876;42.204;24.686;2023-05-03T01:58:06;99942.22;;;12.03;77.65
7668;BME280;3876;42.204;24.686;2023-05-03T02:00:33;99937.00;;;12.06;78.00
7668;BME280;3876;42.204;24.686;2023-05-03T02:03:00;99908.13;;;11.98;78.62
7668;BME280;3876;42.204;24.686;2023-05-03T02:05:26;99938.31;;;12.21;79.39
7668;BME280;3876;42.204;24.686;2023-05-03T02:07:53;99933.19;;;12.19;80.05
7668;BME280;3876;42.204;24.686;2023-05-03T02:10:20;99935.84;;;12.16;82.00
7668;BME280;3876;42.204;24.686;2023-05-03T02:12:46;99937.56;;;12.16;81.73
7668;BME280;3876;42.204;24.686;2023-05-03T02:15:14;99937.81;;;12.08;82.35
7668;BME280;3876;42.204;24.686;2023-05-03T02:17:44;99934.16;;;12.15;83.40
7668;BME280;3876;42.204;24.686;2023-05-03T02:20:11;99927.72;;;12.00;81.19
7668;BME280;3876;42.204;24.686;2023-05-03T02:22:38;99941.88;;;12.15;81.90
7668;BME280;3876;42.204;24.686;2023-05-03T02:25:05;99950.31;;;12.20;81.81
7668;BME280;3876;42.204;24.686;2023-05-03T02:27:32;99952.03;;;12.20;81.24
7668;BME280;3876;42.204;24.686;2023-05-03T02:29:59;99957.22;;;12.18;80.80
7668;BME280;3876;42.204;24.686;2023-05-03T02:32:27;99950.34;;;12.19;80.96
7668;BME280;3876;42.204;24.686;2023-05-03T02:34:54;99947.84;;;12.16;79.58
7668;BME280;3876;42.204;24.686;2023-05-03T02:37:21;99950.31;;;12.20;80.38
7668;BME280;3876;42.204;24.686;2023-05-03T02:39:47;99944.53;;;12.12;79.22
7668;BME280;3876;42.204;24.686;2023-05-03T02:42:14;99955.47;;;12.20;80.32
7668;BME280;3876;42.204;24.686;2023-05-03T02:44:41;99943.47;;;12.19;79.87
7668;BME280;3876;42.204;24.686;2023-05-03T02:47:10;99931.84;;;12.06;78.58
7668;BME280;3876;42.204;24.686;2023-05-03T02:49:38;99933.72;;;12.01;78.74
7668;BME280;3876;42.204;24.686;2023-05-03T02:52:04;99937.25;;;11.97;78.69
7668;BME280;3876;42.204;24.686;2023-05-03T02:54:31;99937.31;;;11.95;78.49
7668;BME280;3876;42.204;24.686;2023-05-03T02:56:58;99939.19;;;11.89;79.07
7668;BME280;3876;42.204;24.686;2023-05-03T02:59:26;99933.97;;;11.92;79.34
7668;BME280;3876;42.204;24.686;2023-05-03T03:01:52;99932.28;;;11.91;78.20
7668;BME280;3876;42.204;24.686;2023-05-03T03:04:19;99953.78;;;11.88;79.05
7668;BME280;3876;42.204;24.686;2023-05-03T03:06:47;99959.75;;;11.89;80.06
7668;BME280;3876;42.204;24.686;2023-05-03T03:09:14;99966.19;;;12.03;79.47
7668;BME280;3876;42.204;24.686;2023-05-03T03:11:40;99982.47;;;12.04;78.90
7668;BME280;3876;42.204;24.686;2023-05-03T03:14:07;99992.75;;;12.02;80.77
7668;BME280;3876;42.204;24.686;2023-05-03T03:16:34;99989.50;;;11.96;80.26
7668;BME280;3876;42.204;24.686;2023-05-03T03:19:00;99986.34;;;11.86;82.95
7668;BME280;3876;42.204;24.686;2023-05-03T03:21:27;99984.78;;;11.81;82.01
7668;BME280;3876;42.204;24.686;2023-05-03T03:23:55;99981.44;;;11.79;83.21
7668;BME280;3876;42.204;24.686;2023-05-03T03:26:22;99974.56;;;11.79;83.09
7668;BME280;3876;42.204;24.686;2023-05-03T03:28:49;99980.75;;;11.71;82.85
7668;BME280;3876;42.204;24.686;2023-05-03T03:31:16;99989.97;;;11.79;83.64
7668;BME280;3876;42.204;24.686;2023-05-03T03:33:43;99987.19;;;11.87;83.46
7668;BME280;3876;42.204;24.686;2023-05-03T03:36:10;99992.56;;;11.78;82.50
7668;BME280;3876;42.204;24.686;2023-05-03T03:38:36;99995.84;;;11.83;83.46
7668;BME280;3876;42.204;24.686;2023-05-03T03:41:04;99997.69;;;11.79;83.26
7668;BME280;3876;42.204;24.686;2023-05-03T03:43:31;100009.75;;;11.76;83.80
7668;BME280;3876;42.204;24.686;2023-05-03T03:45:58;100009.75;;;11.76;84.00
7668;BME280;3876;42.204;24.686;2023-05-03T03:48:25;100018.16;;;11.82;84.76
7668;BME280;3876;42.204;24.686;2023-05-03T03:50:51;100025.19;;;11.76;84.94
7668;BME280;3876;42.204;24.686;2023-05-03T03:53:18;100025.09;;;11.79;85.71
7668;BME280;3876;42.204;24.686;2023-05-03T03:55:45;100030.16;;;11.82;86.70
7668;BME280;3876;42.204;24.686;2023-05-03T03:58:13;100030.22;;;11.79;87.38
7668;BME280;3876;42.204;24.686;2023-05-03T04:00:40;100033.44;;;11.87;89.32
7668;BME280;3876;42.204;24.686;2023-05-03T04:03:07;100040.09;;;11.94;89.45
7668;BME280;3876;42.204;24.686;2023-05-03T04:05:33;100051.09;;;11.99;89.74
7668;BME280;3876;42.204;24.686;2023-05-03T04:08:00;100057.31;;;11.92;90.75
7668;BME280;3876;42.204;24.686;2023-05-03T04:10:27;100056.16;;;12.02;90.92
7668;BME280;3876;42.204;24.686;2023-05-03T04:12:54;100037.69;;;11.88;91.69
7668;BME280;3876;42.204;24.686;2023-05-03T04:15:22;100051.88;;;12.02;92.13
7668;BME280;3876;42.204;24.686;2023-05-03T04:17:49;100065.66;;;12.00;92.65
7668;BME280;3876;42.204;24.686;2023-05-03T04:20:16;100074.31;;;11.96;94.72
7668;BME280;3876;42.204;24.686;2023-05-03T04:22:44;100072.78;;;11.89;95.09
7668;BME280;3876;42.204;24.686;2023-05-03T04:25:11;100065.13;;;11.87;95.31
7668;BME280;3876;42.204;24.686;2023-05-03T04:27:39;100082.09;;;11.93;95.47
7668;BME280;3876;42.204;24.686;2023-05-03T04:30:07;100068.56;;;11.86;95.99
7668;BME280;3876;42.204;24.686;2023-05-03T04:32:37;100104.97;;;12.02;96.46
7668;BME280;3876;42.204;24.686;2023-05-03T04:35:05;100111.66;;;12.09;97.19
7668;BME280;3876;42.204;24.686;2023-05-03T04:37:34;100118.28;;;12.19;97.33
7668;BME280;3876;42.204;24.686;2023-05-03T04:40:01;100118.09;;;12.27;97.32
7668;BME280;3876;42.204;24.686;2023-05-03T04:42:29;100131.53;;;12.36;98.49
7668;BME280;3876;42.204;24.686;2023-05-03T04:44:56;100144.25;;;12.42;98.23
7668;BME280;3876;42.204;24.686;2023-05-03T04:47:22;100136.44;;;12.45;98.58
7668;BME280;3876;42.204;24.686;2023-05-03T04:49:51;100150.09;;;12.47;98.28
7668;BME280;3876;42.204;24.686;2023-05-03T04:52:18;100137.22;;;12.49;98.66
7668;BME280;3876;42.204;24.686;2023-05-03T04:54:44;100146.03;;;12.40;99.99
7668;BME280;3876;42.204;24.686;2023-05-03T04:57:12;100151.25;;;12.37;100.00
7668;BME280;3876;42.204;24.686;2023-05-03T04:59:38;100125.81;;;12.27;100.00
7668;BME280;3876;42.204;24.686;2023-05-03T05:02:05;100155.56;;;12.35;100.00
7668;BME280;3876;42.204;24.686;2023-05-03T05:04:32;100166.69;;;12.36;100.00
7668;BME280;3876;42.204;24.686;2023-05-03T05:07:00;100170.13;;;12.36;100.00
7668;BME280;3876;42.204;24.686;2023-05-03T05:09:27;100165.69;;;12.41;100.00
7668;BME280;3876;42.204;24.686;2023-05-03T05:11:55;100171.75;;;12.40;100.00
7668;BME280;3876;42.204;24.686;2023-05-03T05:14:22;100168.34;;;12.38;100.00
7668;BME280;3876;42.204;24.686;2023-05-03T05:16:49;100177.59;;;12.45;100.00
7668;BME280;3876;42.204;24.686;2023-05-03T05:19:15;100181.19;;;12.38;100.00
7668;BME280;3876;42.204;24.686;2023-05-03T05:21:42;100183.22;;;12.27;100.00
7668;BME280;3876;42.204;24.686;2023-05-03T05:24:10;100181.72;;;12.17;100.00
7668;BME280;3876;42.204;24.686;2023-05-03T05:26:37;100168.13;;;12.14;100.00
7668;BME280;3876;42.204;24.686;2023-05-03T05:29:04;100167.34;;;12.08;100.00
7668;BME280;3876;42.204;24.686;2023-05-03T05:31:30;100168.28;;;12.06;100.00
7668;BME280;3876;42.204;24.686;2023-05-03T05:33:57;100165.69;;;12.07;100.00
7668;BME280;3876;42.204;24.686;2023-05-03T05:36:24;100156.38;;;12.02;100.00
7668;BME280;3876;42.204;24.686;2023-05-03T05:38:50;100160.69;;;12.01;100.00
7668;BME280;3876;42.204;24.686;2023-05-03T05:41:18;100158.16;;;12.00;100.00
7668;BME280;3876;42.204;24.686;2023-05-03T05:43:45;100160.66;;;12.03;100.00
7668;BME280;3876;42.204;24.686;2023-05-03T05:46:12;100165.00;;;12.01;100.00
7668;BME280;3876;42.204;24.686;2023-05-03T05:48:40;100144.78;;;11.86;100.00
7668;BME280;3876;42.204;24.686;2023-05-03T05:51:07;100156.38;;;12.02;100.00
7668;BME280;3876;42.204;24.686;2023-05-03T05:53:34;100146.47;;;11.87;100.00
7668;BME280;3876;42.204;24.686;2023-05-03T05:56:01;100149.91;;;11.86;100.00
7668;BME280;3876;42.204;24.686;2023-05-03T05:58:29;100149.34;;;11.73;100.00
7668;BME280;3876;42.204;24.686;2023-05-03T06:00:57;100148.53;;;11.73;100.00
7668;BME280;3876;42.204;24.686;2023-05-03T06:03:25;100136.50;;;11.75;100.00
7668;BME280;3876;42.204;24.686;2023-05-03T06:05:52;100133.84;;;11.79;100.00
7668;BME280;3876;42.204;24.686;2023-05-03T06:08:19;100135.47;;;11.82;100.00
7668;BME280;3876;42.204;24.686;2023-05-03T06:10:45;100138.13;;;11.79;100.00
7668;BME280;3876;42.204;24.686;2023-05-03T06:13:12;100147.19;;;11.93;100.00
7668;BME280;3876;42.204;24.686;2023-05-03T06:15:40;100142.88;;;11.94;100.00
7668;BME280;3876;42.204;24.686;2023-05-03T06:18:07;100151.31;;;11.99;100.00
7668;BME280;3876;42.204;24.686;2023-05-03T06:20:34;100143.53;;;12.02;100.00
7668;BME280;3876;42.204;24.686;2023-05-03T06:23:00;100138.97;;;12.15;100.00
7668;BME280;3876;42.204;24.686;2023-05-03T06:25:27;100139.44;;;12.29;100.00
7668;BME280;3876;42.204;24.686;2023-05-03T06:27:54;100157.41;;;12.30;100.00
7668;BME280;3876;42.204;24.686;2023-05-03T06:30:21;100153.88;;;12.34;100.00
7668;BME280;3876;42.204;24.686;2023-05-03T06:32:51;100151.16;;;12.40;100.00
7668;BME280;3876;42.204;24.686;2023-05-03T06:35:18;100138.22;;;12.43;100.00
7668;BME280;3876;42.204;24.686;2023-05-03T06:37:46;100138.16;;;12.46;100.00
7668;BME280;3876;42.204;24.686;2023-05-03T06:40:12;100131.06;;;12.54;100.00
7668;BME280;3876;42.204;24.686;2023-05-03T06:42:39;100132.66;;;12.60;100.00
7668;BME280;3876;42.204;24.686;2023-05-03T06:45:07;100136.78;;;12.66;100.00
7668;BME280;3876;42.204;24.686;2023-05-03T06:47:34;100137.47;;;12.71;100.00
7668;BME280;3876;42.204;24.686;2023-05-03T06:50:03;100130.16;;;12.88;100.00
7668;BME280;3876;42.204;24.686;2023-05-03T06:52:30;100123.19;;;12.91;100.00
7668;BME280;3876;42.204;24.686;2023-05-03T06:54:57;100124.56;;;13.03;100.00
7668;BME280;3876;42.204;24.686;2023-05-03T06:57:23;100127.72;;;13.14;100.00
7668;BME280;3876;42.204;24.686;2023-05-03T06:59:50;100124.84;;;13.25;100.00
7668;BME280;3876;42.204;24.686;2023-05-03T07:02:17;100114.63;;;13.49;100.00
7668;BME280;3876;42.204;24.686;2023-05-03T07:04:44;100115.03;;;13.63;100.00
7668;BME280;3876;42.204;24.686;2023-05-03T07:07:12;100114.31;;;13.86;100.00
7668;BME280;3876;42.204;24.686;2023-05-03T07:09:40;100123.50;;;13.95;100.00
7668;BME280;3876;42.204;24.686;2023-05-03T07:12:06;100116.25;;;14.06;100.00
7668;BME280;3876;42.204;24.686;2023-05-03T07:14:33;100124.16;;;14.26;100.00
7668;BME280;3876;42.204;24.686;2023-05-03T07:17:00;100113.16;;;14.47;100.00
7668;BME280;3876;42.204;24.686;2023-05-03T07:19:26;100118.41;;;14.69;100.00
7668;BME280;3876;42.204;24.686;2023-05-03T07:21:54;100107.53;;;14.84;100.00
7668;BME280;3876;42.204;24.686;2023-05-03T07:24:22;100105.69;;;14.88;100.00
7668;BME280;3876;42.204;24.686;2023-05-03T07:26:50;100098.16;;;15.05;100.00
7668;BME280;3876;42.204;24.686;2023-05-03T07:29:16;100107.97;;;15.18;100.00
7668;BME280;3876;42.204;24.686;2023-05-03T07:31:43;100123.28;;;15.23;97.13
7668;BME280;3876;42.204;24.686;2023-05-03T07:34:10;100124.50;;;15.36;96.79
7668;BME280;3876;42.204;24.686;2023-05-03T07:36:37;100124.38;;;15.39;96.14
7668;BME280;3876;42.204;24.686;2023-05-03T07:39:04;100133.72;;;15.43;96.92
7668;BME280;3876;42.204;24.686;2023-05-03T07:41:33;100128.09;;;15.55;95.58
7668;BME280;3876;42.204;24.686;2023-05-03T07:43:59;100118.00;;;15.71;97.91
7668;BME280;3876;42.204;24.686;2023-05-03T07:46:26;100102.94;;;16.02;100.00
7668;BME280;3876;42.204;24.686;2023-05-03T07:48:53;100103.78;;;16.43;99.65
7668;BME280;3876;42.204;24.686;2023-05-03T07:51:19;100102.38;;;16.76;93.69
7668;BME280;3876;42.204;24.686;2023-05-03T07:53:46;100100.28;;;16.64;89.08
7668;BME280;3876;42.204;24.686;2023-05-03T07:56:13;100108.47;;;16.55;90.09
7668;BME280;3876;42.204;24.686;2023-05-03T07:58:41;100087.59;;;16.38;89.83
7668;BME280;3876;42.204;24.686;2023-05-03T08:01:08;100111.16;;;16.72;90.29
7668;BME280;3876;42.204;24.686;2023-05-03T08:03:35;100110.75;;;16.82;89.00
7668;BME280;3876;42.204;24.686;2023-05-03T08:06:02;100109.78;;;17.03;86.74
7668;BME280;3876;42.204;24.686;2023-05-03T08:08:29;100098.38;;;17.07;81.55
7668;BME280;3876;42.204;24.686;2023-05-03T08:10:56;100077.66;;;16.88;83.92
7668;BME280;3876;42.204;24.686;2023-05-03T08:13:23;100073.88;;;16.76;85.49
7668;BME280;3876;42.204;24.686;2023-05-03T08:15:52;100078.41;;;16.51;84.21
7668;BME280;3876;42.204;24.686;2023-05-03T08:18:19;100072.75;;;16.63;85.82
7668;BME280;3876;42.204;24.686;2023-05-03T08:20:45;100084.84;;;16.82;86.39
7668;BME280;3876;42.204;24.686;2023-05-03T08:23:14;100107.28;;;17.20;85.06
7668;BME280;3876;42.204;24.686;2023-05-03T08:25:42;100110.91;;;17.53;85.54
7668;BME280;3876;42.204;24.686;2023-05-03T08:28:09;100097.66;;;17.59;80.98
7668;BME280;3876;42.204;24.686;2023-05-03T08:30:36;100083.44;;;17.49;79.01
7668;BME280;3876;42.204;24.686;2023-05-03T08:33:04;100067.63;;;17.37;78.55
7668;BME280;3876;42.204;24.686;2023-05-03T08:35:34;100079.28;;;17.28;78.65
7668;BME280;3876;42.204;24.686;2023-05-03T08:38:00;100084.88;;;17.38;79.41
7668;BME280;3876;42.204;24.686;2023-05-03T08:40:29;100090.53;;;17.27;80.61
7668;BME280;3876;42.204;24.686;2023-05-03T08:43:06;100092.41;;;17.42;81.00
7668;BME280;3876;42.204;24.686;2023-05-03T08:45:34;100082.81;;;17.63;81.16
7668;BME280;3876;42.204;24.686;2023-05-03T08:48:01;100082.31;;;17.36;79.77
7668;BME280;3876;42.204;24.686;2023-05-03T08:50:30;100067.22;;;17.27;78.89
7668;BME280;3876;42.204;24.686;2023-05-03T08:53:01;100061.63;;;17.53;79.76
7668;BME280;3876;42.204;24.686;2023-05-03T08:55:28;100060.03;;;17.69;78.35
7668;BME280;3876;42.204;24.686;2023-05-03T08:57:55;100055.28;;;17.95;78.44
7668;BME280;3876;42.204;24.686;2023-05-03T09:00:26;100061.06;;;18.34;79.82
7668;BME280;3876;42.204;24.686;2023-05-03T09:02:53;100062.44;;;18.24;75.77
7668;BME280;3876;42.204;24.686;2023-05-03T09:05:31;100053.38;;;18.15;77.95
7668;BME280;3876;42.204;24.686;2023-05-03T09:08:02;100043.22;;;18.28;79.27
7668;BME280;3876;42.204;24.686;2023-05-03T09:10:30;100037.88;;;18.31;76.50
7668;BME280;3876;42.204;24.686;2023-05-03T09:12:57;100040.16;;;18.20;76.64
7668;BME280;3876;42.204;24.686;2023-05-03T09:15:25;100042.25;;;17.96;75.80
7668;BME280;3876;42.204;24.686;2023-05-03T09:18:10;100043.00;;;17.98;78.79
7668;BME280;3876;42.204;24.686;2023-05-03T09:20:39;100033.31;;;18.02;80.12
7668;BME280;3876;42.204;24.686;2023-05-03T09:23:06;100042.31;;;17.77;78.07
7668;BME280;3876;42.204;24.686;2023-05-03T09:25:41;100034.78;;;17.73;79.31
7668;BME280;3876;42.204;24.686;2023-05-03T09:28:08;100037.59;;;17.68;80.09
7668;BME280;3876;42.204;24.686;2023-05-03T09:30:35;100043.91;;;17.63;80.10
7668;BME280;3876;42.204;24.686;2023-05-03T09:33:02;100015.28;;;17.47;79.36
7668;BME280;3876;42.204;24.686;2023-05-03T09:35:29;100013.66;;;17.63;80.96
7668;BME280;3876;42.204;24.686;2023-05-03T09:37:57;100002.59;;;17.60;80.36
7668;BME280;3876;42.204;24.686;2023-05-03T09:40:24;100016.31;;;17.43;80.12
7668;BME280;3876;42.204;24.686;2023-05-03T09:43:04;100036.72;;;17.51;81.36
7668;BME280;3876;42.204;24.686;2023-05-03T09:45:32;100046.88;;;17.55;80.36
7668;BME280;3876;42.204;24.686;2023-05-03T09:48:01;100038.88;;;17.60;79.76
7668;BME280;3876;42.204;24.686;2023-05-03T09:50:30;100042.84;;;17.84;81.17
7668;BME280;3876;42.204;24.686;2023-05-03T09:53:00;100030.94;;;18.14;82.22
7668;BME280;3876;42.204;24.686;2023-05-03T09:55:30;100034.94;;;18.54;79.83
7668;BME280;3876;42.204;24.686;2023-05-03T09:57:58;100036.00;;;18.83;79.52
7668;BME280;3876;42.204;24.686;2023-05-03T10:00:25;100019.63;;;18.97;75.82
7668;BME280;3876;42.204;24.686;2023-05-03T10:02:55;100041.19;;;19.30;73.64
7668;BME280;3876;42.204;24.686;2023-05-03T10:05:25;100033.88;;;19.52;75.17
7668;BME280;3876;42.204;24.686;2023-05-03T10:07:53;100030.06;;;19.73;76.84
7668;BME280;3876;42.204;24.686;2023-05-03T10:10:24;100039.34;;;19.77;74.61
7668;BME280;3876;42.204;24.686;2023-05-03T10:12:50;100055.88;;;19.31;73.79
7668;BME280;3876;42.204;24.686;2023-05-03T10:15:19;100048.88;;;18.84;75.99
7668;BME280;3876;42.204;24.686;2023-05-03T10:17:50;100046.78;;;18.75;75.82
7668;BME280;3876;42.204;24.686;2023-05-03T10:20:24;100052.25;;;18.86;76.21
7668;BME280;3876;42.204;24.686;2023-05-03T10:23:06;100045.25;;;18.71;75.85
7668;BME280;3876;42.204;24.686;2023-05-03T10:25:35;100035.72;;;18.72;76.30
7668;BME280;3876;42.204;24.686;2023-05-03T10:28:04;100021.88;;;18.71;76.23
7668;BME280;3876;42.204;24.686;2023-05-03T10:30:32;100016.19;;;18.80;76.19
7668;BME280;3876;42.204;24.686;2023-05-03T10:33:29;100017.19;;;18.78;75.68
7668;BME280;3876;42.204;24.686;2023-05-03T10:35:57;100005.56;;;18.36;75.56
7668;BME280;3876;42.204;24.686;2023-05-03T10:38:26;100009.75;;;18.39;75.87
7668;BME280;3876;42.204;24.686;2023-05-03T10:40:55;99992.41;;;18.07;77.23
7668;BME280;3876;42.204;24.686;2023-05-03T10:43:41;99990.59;;;18.09;78.97
7668;BME280;3876;42.204;24.686;2023-05-03T10:46:29;99996.09;;;18.03;79.60
7668;BME280;3876;42.204;24.686;2023-05-03T10:49:18;99996.81;;;18.22;79.43
7668;BME280;3876;42.204;24.686;2023-05-03T10:51:45;99983.63;;;18.42;79.97
7668;BME280;3876;42.204;24.686;2023-05-03T10:54:12;99983.63;;;18.42;79.35
7668;BME280;3876;42.204;24.686;2023-05-03T10:56:51;99980.75;;;18.31;77.57
7668;BME280;3876;42.204;24.686;2023-05-03T10:59:18;99981.94;;;18.25;78.86
7668;BME280;3876;42.204;24.686;2023-05-03T11:01:45;99981.53;;;18.16;79.80
7668;BME280;3876;42.204;24.686;2023-05-03T11:04:20;99984.91;;;18.18;80.70
7668;BME280;3876;42.204;24.686;2023-05-03T11:06:49;99976.78;;;17.91;80.35
7668;BME280;3876;42.204;24.686;2023-05-03T11:09:29;99971.97;;;17.83;81.56
7668;BME280;3876;42.204;24.686;2023-05-03T11:11:58;99962.06;;;17.92;82.35
7668;BME280;3876;42.204;24.686;2023-05-03T11:14:29;99970.44;;;17.97;82.01
7668;BME280;3876;42.204;24.686;2023-05-03T11:16:56;99953.81;;;17.83;81.04
7668;BME280;3876;42.204;24.686;2023-05-03T11:19:22;99968.47;;;17.67;81.94
7668;BME280;3876;42.204;24.686;2023-05-03T11:21:50;99963.00;;;17.56;82.77
7668;BME280;3876;42.204;24.686;2023-05-03T11:24:17;99974.00;;;17.43;83.42
7668;BME280;3876;42.204;24.686;2023-05-03T11:26:45;99976.69;;;17.41;84.08
7668;BME280;3876;42.204;24.686;2023-05-03T11:29:15;99974.00;;;17.43;86.50
7668;BME280;3876;42.204;24.686;2023-05-03T11:31:43;99976.69;;;17.41;86.36
7668;BME280;3876;42.204;24.686;2023-05-03T11:34:10;99979.72;;;17.49;85.71
7668;BME280;3876;42.204;24.686;2023-05-03T11:36:39;99959.75;;;17.34;86.83
7668;BME280;3876;42.204;24.686;2023-05-03T11:39:06;99959.06;;;17.30;87.15
7668;BME280;3876;42.204;24.686;2023-05-03T11:41:34;99944.94;;;17.19;87.63
7668;BME280;3876;42.204;24.686;2023-05-03T11:44:01;99946.09;;;17.13;89.58
7668;BME280;3876;42.204;24.686;2023-05-03T11:46:32;99947.84;;;17.30;89.03
7668;BME280;3876;42.204;24.686;2023-05-03T11:48:59;99944.28;;;17.32;88.80
7668;BME280;3876;42.204;24.686;2023-05-03T11:51:26;99945.09;;;17.16;86.83
7668;BME280;3876;42.204;24.686;2023-05-03T11:53:54;99928.03;;;17.29;89.27
7668;BME280;3876;42.204;24.686;2023-05-03T11:56:21;99924.09;;;17.22;85.77
7668;BME280;3876;42.204;24.686;2023-05-03T11:58:51;99909.44;;;17.21;85.84
7668;BME280;3876;42.204;24.686;2023-05-03T12:01:18;99896.09;;;17.11;86.94
7668;BME280;3876;42.204;24.686;2023-05-03T12:03:52;99925.59;;;17.26;84.66
7668;BME280;3876;42.204;24.686;2023-05-03T12:06:19;99940.28;;;17.25;82.33
7668;BME280;3876;42.204;24.686;2023-05-03T12:08:46;99944.28;;;17.15;76.28
7668;BME280;3876;42.204;24.686;2023-05-03T12:11:14;99944.16;;;17.00;76.71
7668;BME280;3876;42.204;24.686;2023-05-03T12:13:41;99921.91;;;16.96;80.41
7668;BME280;3876;42.204;24.686;2023-05-03T12:16:09;99924.66;;;17.10;82.89
7668;BME280;3876;42.204;24.686;2023-05-03T12:18:51;99913.66;;;16.88;85.46
7668;BME280;3876;42.204;24.686;2023-05-03T12:21:19;99911.38;;;16.82;86.17
7668;BME280;3876;42.204;24.686;2023-05-03T12:23:46;99893.56;;;16.57;87.20
7668;BME280;3876;42.204;24.686;2023-05-03T12:26:14;99918.03;;;16.50;88.14
7668;BME280;3876;42.204;24.686;2023-05-03T12:28:41;99920.53;;;16.33;90.54
7668;BME280;3876;42.204;24.686;2023-05-03T12:31:08;99912.50;;;16.00;91.22
7668;BME280;3876;42.204;24.686;2023-05-03T12:33:35;99900.84;;;16.10;92.46
7668;BME280;3876;42.204;24.686;2023-05-03T12:36:04;99900.25;;;16.05;92.65
7668;BME280;3876;42.204;24.686;2023-05-03T12:38:31;99896.09;;;16.01;92.37
7668;BME280;3876;42.204;24.686;2023-05-03T12:40:58;99891.06;;;15.98;90.39
7668;BME280;3876;42.204;24.686;2023-05-03T12:43:25;99892.53;;;16.03;91.14
7668;BME280;3876;42.204;24.686;2023-05-03T12:45:51;99876.16;;;16.03;90.29
7668;BME280;3876;42.204;24.686;2023-05-03T12:48:18;99893.66;;;16.16;92.23
7668;BME280;3876;42.204;24.686;2023-05-03T12:50:49;99887.03;;;16.29;90.78
7668;BME280;3876;42.204;24.686;2023-05-03T12:53:17;99872.97;;;16.35;89.33
7668;BME280;3876;42.204;24.686;2023-05-03T12:55:43;99866.13;;;16.34;87.90
7668;BME280;3876;42.204;24.686;2023-05-03T12:58:10;99862.84;;;16.31;87.16
7668;BME280;3876;42.204;24.686;2023-05-03T13:00:37;99867.94;;;16.32;87.84
7668;BME280;3876;42.204;24.686;2023-05-03T13:03:04;99873.16;;;16.49;89.42
7668;BME280;3876;42.204;24.686;2023-05-03T13:05:30;99825.03;;;16.28;87.90
7668;BME280;3876;42.204;24.686;2023-05-03T13:07:59;99853.66;;;16.61;87.62